sensor_id;sensor_type;location;lat;lon;timestamp;temperature;humidity
4820;DHT22;2424;49.696;6.630;2023-05-07T00:04:04;13.90;99.90
4820;DHT22;2424;49.696;6.630;2023-05-07T00:09:29;13.90;99.90
4820;DHT22;2424;49.696;6.630;2023-05-07T00:14:51;13.80;99.90
4820;DHT22;2424;49.696;6.630;2023-05-07T00:20:13;13.80;99.90
4820;DHT22;2424;49.696;6.630;2023-05-07T00:25:36;13.60;99.90
4820;DHT22;2424;49.696;6.630;2023-05-07T00:30:58;13.60;99.90
4820;DHT22;2424;49.696;6.630;2023-05-07T00:36:20;13.50;99.90
4820;DHT22;2424;49.696;6.630;2023-05-07T00:41:43;13.50;99.90
4820;DHT22;2424;49.696;6.630;2023-05-07T00:47:06;13.40;99.90
4820;DHT22;2424;49.696;6.630;2023-05-07T00:52:27;13.30;99.90
4820;DHT22;2424;49.696;6.630;2023-05-07T00:57:51;13.20;99.90
4820;DHT22;2424;49.696;6.630;2023-05-07T01:03:14;13.20;99.90
4820;DHT22;2424;49.696;6.630;2023-05-07T01:08:36;13.20;99.90
4820;DHT22;2424;49.696;6.630;2023-05-07T01:14:01;13.20;99.90
4820;DHT22;2424;49.696;6.630;2023-05-07T01:19:24;13.10;99.90
4820;DHT22;2424;49.696;6.630;2023-05-07T01:24:47;13.00;99.90
4820;DHT22;2424;49.696;6.630;2023-05-07T01:30:10;13.00;99.90
4820;DHT22;2424;49.696;6.630;2023-05-07T01:35:37;12.90;99.90
4820;DHT22;2424;49.696;6.630;2023-05-07T01:41:01;12.90;99.90
4820;DHT22;2424;49.696;6.630;2023-05-07T01:46:24;12.80;99.90
4820;DHT22;2424;49.696;6.630;2023-05-07T01:51:47;12.70;99.90
4820;DHT22;2424;49.696;6.630;2023-05-07T01:57:10;12.70;99.90
4820;DHT22;2424;49.696;6.630;2023-05-07T02:02:32;12.60;99.90
4820;DHT22;2424;49.696;6.630;2023-05-07T02:07:54;12.60;99.90
4820;DHT22;2424;49.696;6.630;2023-05-07T02:13:17;12.60;99.90
4820;DHT22;2424;49.696;6.630;2023-05-07T02:18:40;12.60;99.90
4820;DHT22;2424;49.696;6.630;2023-05-07T02:24:02;12.50;99.90
4820;DHT22;2424;49.696;6.630;2023-05-07T02:29:25;12.50;99.90
4820;DHT22;2424;49.696;6.630;2023-05-07T02:34:50;12.40;99.90
4820;DHT22;2424;49.696;6.630;2023-05-07T02:40:13;12.40;99.90
4820;DHT22;2424;49.696;6.630;2023-05-07T02:45:36;12.30;99.90
4820;DHT22;2424;49.696;6.630;2023-05-07T02:50:59;12.30;99.90
4820;DHT22;2424;49.696;6.630;2023-05-07T02:56:21;12.20;99.90
4820;DHT22;2424;49.696;6.630;2023-05-07T03:01:44;12.20;99.90
4820;DHT22;2424;49.696;6.630;2023-05-07T03:07:06;12.10;99.90
4820;DHT22;2424;49.696;6.630;2023-05-07T03:12:28;12.00;99.90
4820;DHT22;2424;49.696;6.630;2023-05-07T03:17:51;11.90;99.90
4820;DHT22;2424;49.696;6.630;2023-05-07T03:23:13;11.90;99.90
4820;DHT22;2424;49.696;6.630;2023-05-07T03:28:35;11.80;99.90
4820;DHT22;2424;49.696;6.630;2023-05-07T03:33:58;11.80;99.90
4820;DHT22;2424;49.696;6.630;2023-05-07T03:39:20;11.70;99.90
4820;DHT22;2424;49.696;6.630;2023-05-07T03:44:42;11.70;99.90
4820;DHT22;2424;49.696;6.630;2023-05-07T03:50:06;11.70;99.90
4820;DHT22;2424;49.696;6.630;2023-05-07T03:55:28;11.60;99.90
4820;DHT22;2424;49.696;6.630;2023-05-07T04:00:50;11.60;99.90
4820;DHT22;2424;49.696;6.630;2023-05-07T04:06:15;11.60;99.90
4820;DHT22;2424;49.696;6.630;2023-05-07T04:11:37;11.60;99.90
4820;DHT22;2424;49.696;6.630;2023-05-07T04:17:00;11.60;99.90
4820;DHT22;2424;49.696;6.630;2023-05-07T04:22:24;11.50;99.90
4820;DHT22;2424;49.696;6.630;2023-05-07T04:27:46;11.50;99.90
4820;DHT22;2424;49.696;6.630;2023-05-07T04:33:09;11.60;99.90
4820;DHT22;2424;49.696;6.630;2023-05-07T04:38:33;11.60;99.90
4820;DHT22;2424;49.696;6.630;2023-05-07T04:43:56;11.60;99.90
4820;DHT22;2424;49.696;6.630;2023-05-07T04:49:19;11.70;99.90
4820;DHT22;2424;49.696;6.630;2023-05-07T04:54:42;11.70;99.90
4820;DHT22;2424;49.696;6.630;2023-05-07T05:00:05;11.70;99.90
4820;DHT22;2424;49.696;6.630;2023-05-07T05:05:29;11.80;99.90
4820;DHT22;2424;49.696;6.630;2023-05-07T05:10:52;11.80;99.90
4820;DHT22;2424;49.696;6.630;2023-05-07T05:16:14;11.80;99.90
4820;DHT22;2424;49.696;6.630;2023-05-07T05:21:36;11.90;99.90
4820;DHT22;2424;49.696;6.630;2023-05-07T05:26:59;11.90;99.90
4820;DHT22;2424;49.696;6.630;2023-05-07T05:32:22;11.90;99.90
4820;DHT22;2424;49.696;6.630;2023-05-07T05:37:44;11.90;99.90
4820;DHT22;2424;49.696;6.630;2023-05-07T05:43:07;12.00;99.90
4820;DHT22;2424;49.696;6.630;2023-05-07T05:48:29;12.00;99.90
4820;DHT22;2424;49.696;6.630;2023-05-07T05:53:51;12.00;99.90
4820;DHT22;2424;49.696;6.630;2023-05-07T05:59:15;11.90;99.90
4820;DHT22;2424;49.696;6.630;2023-05-07T06:04:36;12.00;99.90
4820;DHT22;2424;49.696;6.630;2023-05-07T06:09:58;12.00;99.90
4820;DHT22;2424;49.696;6.630;2023-05-07T06:15:22;12.20;99.90
4820;DHT22;2424;49.696;6.630;2023-05-07T06:20:44;12.30;99.90
4820;DHT22;2424;49.696;6.630;2023-05-07T06:26:06;12.40;99.90
4820;DHT22;2424;49.696;6.630;2023-05-07T06:31:31;12.50;99.90
4820;DHT22;2424;49.696;6.630;2023-05-07T06:36:53;12.60;99.90
4820;DHT22;2424;49.696;6.630;2023-05-07T06:42:15;12.70;99.90
4820;DHT22;2424;49.696;6.630;2023-05-07T06:47:38;12.70;99.90
4820;DHT22;2424;49.696;6.630;2023-05-07T06:53:00;12.80;99.90
4820;DHT22;2424;49.696;6.630;2023-05-07T06:58:22;13.00;99.90
4820;DHT22;2424;49.696;6.630;2023-05-07T07:03:45;13.00;99.90
4820;DHT22;2424;49.696;6.630;2023-05-07T07:09:07;13.10;99.90
4820;DHT22;2424;49.696;6.630;2023-05-07T07:14:29;13.20;99.90
4820;DHT22;2424;49.696;6.630;2023-05-07T07:19:52;13.30;99.90
4820;DHT22;2424;49.696;6.630;2023-05-07T07:25:14;13.50;99.90
4820;DHT22;2424;49.696;6.630;2023-05-07T07:30:36;13.60;99.90
4820;DHT22;2424;49.696;6.630;2023-05-07T07:36:00;13.70;99.90
4820;DHT22;2424;49.696;6.630;2023-05-07T07:41:22;13.80;99.90
4820;DHT22;2424;49.696;6.630;2023-05-07T07:46:44;13.90;99.90
4820;DHT22;2424;49.696;6.630;2023-05-07T07:52:07;14.10;99.90
4820;DHT22;2424;49.696;6.630;2023-05-07T07:57:29;14.20;99.90
4820;DHT22;2424;49.696;6.630;2023-05-07T08:02:51;14.40;99.90
4820;DHT22;2424;49.696;6.630;2023-05-07T08:08:14;14.70;99.90
4820;DHT22;2424;49.696;6.630;2023-05-07T08:13:36;14.80;99.90
4820;DHT22;2424;49.696;6.630;2023-05-07T08:18:58;15.00;99.90
4820;DHT22;2424;49.696;6.630;2023-05-07T08:24:21;15.20;99.90
4820;DHT22;2424;49.696;6.630;2023-05-07T08:29:43;15.30;99.90
4820;DHT22;2424;49.696;6.630;2023-05-07T08:35:08;15.60;99.90
4820;DHT22;2424;49.696;6.630;2023-05-07T08:40:36;15.80;99.90
4820;DHT22;2424;49.696;6.630;2023-05-07T08:46:01;15.90;99.90
4820;DHT22;2424;49.696;6.630;2023-05-07T08:51:23;16.10;99.90
4820;DHT22;2424;49.696;6.630;2023-05-07T08:56:46;16.20;99.90
4820;DHT22;2424;49.696;6.630;2023-05-07T09:02:09;16.40;99.90
4820;DHT22;2424;49.696;6.630;2023-05-07T09:07:31;16.50;99.90
4820;DHT22;2424;49.696;6.630;2023-05-07T09:12:55;16.60;99.90
4820;DHT22;2424;49.696;6.630;2023-05-07T09:18:17;16.70;99.90
4820;DHT22;2424;49.696;6.630;2023-05-07T09:23:39;16.80;99.90
4820;DHT22;2424;49.696;6.630;2023-05-07T09:29:03;16.80;99.90
4820;DHT22;2424;49.696;6.630;2023-05-07T09:34:25;16.90;99.90
4820;DHT22;2424;49.696;6.630;2023-05-07T09:39:48;17.00;99.90
4820;DHT22;2424;49.696;6.630;2023-05-07T09:45:12;17.20;99.90
4820;DHT22;2424;49.696;6.630;2023-05-07T09:50:36;17.20;99.90
4820;DHT22;2424;49.696;6.630;2023-05-07T09:55:58;17.40;99.90
4820;DHT22;2424;49.696;6.630;2023-05-07T10:01:22;17.50;99.90
4820;DHT22;2424;49.696;6.630;2023-05-07T10:06:46;17.70;99.90
4820;DHT22;2424;49.696;6.630;2023-05-07T10:12:09;17.80;99.90
4820;DHT22;2424;49.696;6.630;2023-05-07T10:17:33;17.80;99.90
4820;DHT22;2424;49.696;6.630;2023-05-07T10:22:56;17.90;99.90
4820;DHT22;2424;49.696;6.630;2023-05-07T10:28:20;18.00;99.90
4820;DHT22;2424;49.696;6.630;2023-05-07T10:33:46;18.10;99.90
4820;DHT22;2424;49.696;6.630;2023-05-07T10:39:09;18.10;99.90
4820;DHT22;2424;49.696;6.630;2023-05-07T10:44:31;18.20;99.90
4820;DHT22;2424;49.696;6.630;2023-05-07T10:50:22;18.30;99.90
4820;DHT22;2424;49.696;6.630;2023-05-07T10:55:45;18.30;99.90
4820;DHT22;2424;49.696;6.630;2023-05-07T11:01:07;18.40;99.90
4820;DHT22;2424;49.696;6.630;2023-05-07T11:06:32;18.40;99.90
4820;DHT22;2424;49.696;6.630;2023-05-07T11:11:55;18.40;99.90
4820;DHT22;2424;49.696;6.630;2023-05-07T11:17:17;18.50;99.90
4820;DHT22;2424;49.696;6.630;2023-05-07T11:22:40;18.50;99.90
4820;DHT22;2424;49.696;6.630;2023-05-07T11:28:06;18.50;99.90
4820;DHT22;2424;49.696;6.630;2023-05-07T11:33:31;18.50;99.90
4820;DHT22;2424;49.696;6.630;2023-05-07T11:38:54;18.60;99.90
4820;DHT22;2424;49.696;6.630;2023-05-07T11:44:16;18.70;99.90
4820;DHT22;2424;49.696;6.630;2023-05-07T11:49:38;18.70;99.90
4820;DHT22;2424;49.696;6.630;2023-05-07T11:55:03;18.80;99.90
4820;DHT22;2424;49.696;6.630;2023-05-07T12:00:25;19.00;99.90
4820;DHT22;2424;49.696;6.630;2023-05-07T12:05:48;19.00;99.90
4820;DHT22;2424;49.696;6.630;2023-05-07T12:11:14;19.10;99.90
4820;DHT22;2424;49.696;6.630;2023-05-07T12:16:38;19.20;99.90
4820;DHT22;2424;49.696;6.630;2023-05-07T12:22:02;19.30;99.90
4820;DHT22;2424;49.696;6.630;2023-05-07T12:27:26;19.40;99.90
4820;DHT22;2424;49.696;6.630;2023-05-07T12:32:52;19.50;99.90
4820;DHT22;2424;49.696;6.630;2023-05-07T12:38:15;19.60;99.90
4820;DHT22;2424;49.696;6.630;2023-05-07T12:43:39;19.70;99.90
4820;DHT22;2424;49.696;6.630;2023-05-07T12:49:01;19.70;99.90
4820;DHT22;2424;49.696;6.630;2023-05-07T12:54:29;19.70;99.90
4820;DHT22;2424;49.696;6.630;2023-05-07T12:59:57;19.70;99.90
4820;DHT22;2424;49.696;6.630;2023-05-07T13:05:19;19.70;99.90
4820;DHT22;2424;49.696;6.630;2023-05-07T13:10:41;19.60;99.90
4820;DHT22;2424;49.696;6.630;2023-05-07T13:16:07;19.70;99.90
4820;DHT22;2424;49.696;6.630;2023-05-07T13:21:29;19.60;99.90
4820;DHT22;2424;49.696;6.630;2023-05-07T13:26:52;19.60;99.90
4820;DHT22;2424;49.696;6.630;2023-05-07T13:32:15;19.50;99.90
4820;DHT22;2424;49.696;6.630;2023-05-07T13:37:37;19.50;99.90
4820;DHT22;2424;49.696;6.630;2023-05-07T13:42:59;19.50;99.90
4820;DHT22;2424;49.696;6.630;2023-05-07T13:48:24;19.60;99.90
4820;DHT22;2424;49.696;6.630;2023-05-07T13:53:46;19.60;99.90
4820;DHT22;2424;49.696;6.630;2023-05-07T13:59:07;19.60;99.90
4820;DHT22;2424;49.696;6.630;2023-05-07T14:04:31;19.60;99.90
4820;DHT22;2424;49.696;6.630;2023-05-07T14:09:54;19.60;99.90
4820;DHT22;2424;49.696;6.630;2023-05-07T14:15:16;19.70;99.90
4820;DHT22;2424;49.696;6.630;2023-05-07T14:20:39;19.80;99.90
4820;DHT22;2424;49.696;6.630;2023-05-07T14:26:01;19.80;99.90
4820;DHT22;2424;49.696;6.630;2023-05-07T14:31:23;19.90;99.90
4820;DHT22;2424;49.696;6.630;2023-05-07T14:36:46;20.10;99.90
4820;DHT22;2424;49.696;6.630;2023-05-07T14:42:08;20.10;99.90
4820;DHT22;2424;49.696;6.630;2023-05-07T14:47:30;20.20;99.90
4820;DHT22;2424;49.696;6.630;2023-05-07T14:52:53;20.30;99.90
4820;DHT22;2424;49.696;6.630;2023-05-07T14:58:15;20.40;99.90
4820;DHT22;2424;49.696;6.630;2023-05-07T15:03:37;20.40;99.90
4820;DHT22;2424;49.696;6.630;2023-05-07T15:09:01;20.40;99.90
4820;DHT22;2424;49.696;6.630;2023-05-07T15:14:23;20.30;99.90
4820;DHT22;2424;49.696;6.630;2023-05-07T15:19:45;20.20;99.90
4820;DHT22;2424;49.696;6.630;2023-05-07T15:25:08;20.10;99.90
4820;DHT22;2424;49.696;6.630;2023-05-07T15:30:30;20.00;99.90
4820;DHT22;2424;49.696;6.630;2023-05-07T15:35:52;19.90;99.90
4820;DHT22;2424;49.696;6.630;2023-05-07T15:41:16;19.80;99.90
4820;DHT22;2424;49.696;6.630;2023-05-07T15:46:38;19.70;99.90
4820;DHT22;2424;49.696;6.630;2023-05-07T15:51:59;19.60;99.90
4820;DHT22;2424;49.696;6.630;2023-05-07T15:57:23;19.60;99.90
4820;DHT22;2424;49.696;6.630;2023-05-07T16:02:45;19.50;99.90
4820;DHT22;2424;49.696;6.630;2023-05-07T16:08:07;19.40;99.90
4820;DHT22;2424;49.696;6.630;2023-05-07T16:13:31;19.40;99.90
4820;DHT22;2424;49.696;6.630;2023-05-07T16:18:53;19.40;99.90
4820;DHT22;2424;49.696;6.630;2023-05-07T16:24:15;19.40;99.90
4820;DHT22;2424;49.696;6.630;2023-05-07T16:29:38;19.40;99.90
4820;DHT22;2424;49.696;6.630;2023-05-07T16:35:00;19.50;99.90
4820;DHT22;2424;49.696;6.630;2023-05-07T16:40:22;19.60;99.90
4820;DHT22;2424;49.696;6.630;2023-05-07T16:45:46;19.70;99.90
4820;DHT22;2424;49.696;6.630;2023-05-07T16:51:08;19.80;99.90
4820;DHT22;2424;49.696;6.630;2023-05-07T16:56:30;19.80;99.90
4820;DHT22;2424;49.696;6.630;2023-05-07T17:01:53;19.80;99.90
4820;DHT22;2424;49.696;6.630;2023-05-07T17:07:15;19.80;99.90
4820;DHT22;2424;49.696;6.630;2023-05-07T17:12:37;19.70;99.90
4820;DHT22;2424;49.696;6.630;2023-05-07T17:18:01;19.80;99.90
4820;DHT22;2424;49.696;6.630;2023-05-07T17:23:23;19.70;99.90
4820;DHT22;2424;49.696;6.630;2023-05-07T17:28:45;19.50;99.90
4820;DHT22;2424;49.696;6.630;2023-05-07T17:34:08;19.50;99.90
4820;DHT22;2424;49.696;6.630;2023-05-07T17:39:30;19.50;99.90
4820;DHT22;2424;49.696;6.630;2023-05-07T17:44:52;19.40;99.90
4820;DHT22;2424;49.696;6.630;2023-05-07T17:50:16;19.40;99.90
4820;DHT22;2424;49.696;6.630;2023-05-07T17:55:40;19.30;99.90
4820;DHT22;2424;49.696;6.630;2023-05-07T18:01:03;19.30;99.90
4820;DHT22;2424;49.696;6.630;2023-05-07T18:06:26;19.20;99.90
4820;DHT22;2424;49.696;6.630;2023-05-07T18:11:48;19.00;99.90
4820;DHT22;2424;49.696;6.630;2023-05-07T18:17:10;18.70;99.90
4820;DHT22;2424;49.696;6.630;2023-05-07T18:22:33;18.20;99.90
4820;DHT22;2424;49.696;6.630;2023-05-07T18:27:55;17.90;99.90
4820;DHT22;2424;49.696;6.630;2023-05-07T18:33:29;17.50;99.90
4820;DHT22;2424;49.696;6.630;2023-05-07T18:38:52;17.10;99.90
4820;DHT22;2424;49.696;6.630;2023-05-07T18:44:14;16.90;99.90
4820;DHT22;2424;49.696;6.630;2023-05-07T18:49:36;16.60;99.90
4820;DHT22;2424;49.696;6.630;2023-05-07T18:54:59;16.40;99.90
4820;DHT22;2424;49.696;6.630;2023-05-07T19:00:22;16.20;99.90
4820;DHT22;2424;49.696;6.630;2023-05-07T19:05:44;16.10;99.90
4820;DHT22;2424;49.696;6.630;2023-05-07T19:11:07;16.10;99.90
4820;DHT22;2424;49.696;6.630;2023-05-07T19:16:29;16.10;99.90
4820;DHT22;2424;49.696;6.630;2023-05-07T19:21:51;16.00;99.90
4820;DHT22;2424;49.696;6.630;2023-05-07T19:27:15;16.00;99.90
4820;DHT22;2424;49.696;6.630;2023-05-07T19:32:38;16.00;99.90
4820;DHT22;2424;49.696;6.630;2023-05-07T19:38:00;15.90;99.90
4820;DHT22;2424;49.696;6.630;2023-05-07T19:43:23;15.80;99.90
4820;DHT22;2424;49.696;6.630;2023-05-07T19:48:45;15.80;99.90
4820;DHT22;2424;49.696;6.630;2023-05-07T19:54:07;15.70;99.90
4820;DHT22;2424;49.696;6.630;2023-05-07T19:59:30;15.80;99.90
4820;DHT22;2424;49.696;6.630;2023-05-07T20:04:52;15.90;99.90
4820;DHT22;2424;49.696;6.630;2023-05-07T20:10:15;15.80;99.90
4820;DHT22;2424;49.696;6.630;2023-05-07T20:15:38;15.80;99.90
4820;DHT22;2424;49.696;6.630;2023-05-07T20:21:00;15.70;99.90
4820;DHT22;2424;49.696;6.630;2023-05-07T20:26:24;15.70;99.90
4820;DHT22;2424;49.696;6.630;2023-05-07T20:31:48;15.60;99.90
4820;DHT22;2424;49.696;6.630;2023-05-07T20:37:10;15.50;99.90
4820;DHT22;2424;49.696;6.630;2023-05-07T20:42:33;15.40;99.90
4820;DHT22;2424;49.696;6.630;2023-05-07T20:47:57;15.30;99.90
4820;DHT22;2424;49.696;6.630;2023-05-07T20:53:19;15.30;99.90
4820;DHT22;2424;49.696;6.630;2023-05-07T20:58:41;15.30;99.90
4820;DHT22;2424;49.696;6.630;2023-05-07T21:04:04;15.30;99.90
4820;DHT22;2424;49.696;6.630;2023-05-07T21:09:26;15.30;99.90
4820;DHT22;2424;49.696;6.630;2023-05-07T21:14:48;15.30;99.90
4820;DHT22;2424;49.696;6.630;2023-05-07T21:20:11;15.30;99.90
4820;DHT22;2424;49.696;6.630;2023-05-07T21:25:36;15.30;99.90
4820;DHT22;2424;49.696;6.630;2023-05-07T21:30:58;15.30;99.90
4820;DHT22;2424;49.696;6.630;2023-05-07T21:36:21;15.40;99.90
4820;DHT22;2424;49.696;6.630;2023-05-07T21:41:43;15.40;99.90
4820;DHT22;2424;49.696;6.630;2023-05-07T21:47:05;15.40;99.90
4820;DHT22;2424;49.696;6.630;2023-05-07T21:52:29;15.40;99.90
4820;DHT22;2424;49.696;6.630;2023-05-07T21:57:51;15.40;99.90
4820;DHT22;2424;49.696;6.630;2023-05-07T22:03:13;15.40;99.90
4820;DHT22;2424;49.696;6.630;2023-05-07T22:08:37;15.30;99.90
4820;DHT22;2424;49.696;6.630;2023-05-07T22:13:58;15.20;99.90
4820;DHT22;2424;49.696;6.630;2023-05-07T22:19:20;15.10;99.90
4820;DHT22;2424;49.696;6.630;2023-05-07T22:24:44;15.10;99.90
4820;DHT22;2424;49.696;6.630;2023-05-07T22:30:07;14.90;99.90
4820;DHT22;2424;49.696;6.630;2023-05-07T22:35:29;14.90;99.90
4820;DHT22;2424;49.696;6.630;2023-05-07T22:40:52;14.90;99.90
4820;DHT22;2424;49.696;6.630;2023-05-07T22:46:14;15.00;99.90
4820;DHT22;2424;49.696;6.630;2023-05-07T22:51:36;15.10;99.90
4820;DHT22;2424;49.696;6.630;2023-05-07T22:57:00;15.10;99.90
4820;DHT22;2424;49.696;6.630;2023-05-07T23:02:22;15.10;99.90
4820;DHT22;2424;49.696;6.630;2023-05-07T23:07:46;15.10;99.90
4820;DHT22;2424;49.696;6.630;2023-05-07T23:13:10;15.10;99.90
4820;DHT22;2424;49.696;6.630;2023-05-07T23:18:36;15.00;99.90
4820;DHT22;2424;49.696;6.630;2023-05-07T23:23:58;15.00;99.90
4820;DHT22;2424;49.696;6.630;2023-05-07T23:29:21;15.00;99.90
4820;DHT22;2424;49.696;6.630;2023-05-07T23:34:43;15.00;99.90
4820;DHT22;2424;49.696;6.630;2023-05-07T23:40:06;15.00;99.90
4820;DHT22;2424;49.696;6.630;2023-05-07T23:45:29;14.90;99.90
4820;DHT22;2424;49.696;6.630;2023-05-07T23:50:51;14.90;99.90
4820;DHT22;2424;49.696;6.630;2023-05-07T23:56:14;14.90;99.90
